TimeCST,TemperatureF,Dew PointF,Humidity,Sea Level PressureIn,VisibilityMPH,Wind Direction,Wind SpeedMPH,Gust SpeedMPH,PrecipitationIn,Events,Conditions,WindDirDegrees,DateUTC
12:07 AM,24.1,21.9,91,30.46,1.8,NNW,20.7,-,0.00,Snow,Light Snow,330,2013-11-22 06:07:00
12:28 AM,24.1,21.0,88,30.47,2.0,NNW,17.3,28.8,0.00,Snow,Light Snow,340,2013-11-22 06:28:00
12:53 AM,23.0,21.0,92,30.52,1.8,NNW,19.6,-,0.00,Snow,Light Snow,340,2013-11-22 06:53:00
1:09 AM,23.0,19.9,88,30.48,2.5,NNW,20.7,-,0.00,Snow,Light Snow,340,2013-11-22 07:09:00
1:15 AM,23.0,19.9,88,30.48,3.0,NNW,18.4,-,0.00,Snow,Light Snow,340,2013-11-22 07:15:00
1:39 AM,23.0,19.9,88,30.48,2.5,NNW,19.6,-,0.00,Snow,Light Snow,340,2013-11-22 07:39:00
1:50 AM,23.0,19.4,86,30.48,5.0,NNW,15.0,26.5,0.00,Snow,Light Snow,340,2013-11-22 07:50:00
1:53 AM,21.9,19.9,92,30.53,7.0,NNW,17.3,26.5,0.00,Snow,Light Snow,340,2013-11-22 07:53:00
2:36 AM,21.9,19.0,89,30.49,9.0,NNW,20.7,26.5,0.00,,Overcast,330,2013-11-22 08:36:00
2:49 AM,21.2,17.6,86,30.50,10.0,NNW,18.4,-,0.00,,Overcast,340,2013-11-22 08:49:00
2:53 AM,21.0,18.0,88,30.54,10.0,NNW,17.3,-,0.00,,Overcast,340,2013-11-22 08:53:00
3:53 AM,19.9,16.0,85,30.54,10.0,NNW,19.6,-,N/A,,Overcast,340,2013-11-22 09:53:00
4:53 AM,18.0,14.0,84,30.58,10.0,NNW,11.5,-,N/A,,Clear,330,2013-11-22 10:53:00
5:53 AM,15.1,12.0,88,30.59,10.0,NNW,9.2,-,N/A,,Clear,330,2013-11-22 11:53:00
6:53 AM,10.9,8.1,88,30.60,10.0,NW,9.2,-,N/A,,Clear,320,2013-11-22 12:53:00
7:53 AM,12.0,9.0,88,30.62,10.0,NW,13.8,-,N/A,,Clear,320,2013-11-22 13:53:00
8:53 AM,15.1,10.9,84,30.61,10.0,NNW,6.9,-,N/A,,Clear,330,2013-11-22 14:53:00
9:53 AM,18.0,12.9,81,30.64,10.0,NW,15.0,-,N/A,,Clear,320,2013-11-22 15:53:00
10:53 AM,19.0,12.9,77,30.65,10.0,NNW,11.5,-,N/A,,Clear,330,2013-11-22 16:53:00
11:53 AM,21.9,12.9,68,30.65,10.0,WNW,10.4,-,N/A,,Clear,290,2013-11-22 17:53:00
12:53 PM,26.1,10.9,53,30.63,10.0,West,9.2,-,N/A,,Clear,270,2013-11-22 18:53:00
1:53 PM,27.0,10.9,51,30.61,10.0,West,11.5,-,N/A,,Clear,270,2013-11-22 19:53:00
2:53 PM,28.0,10.9,49,30.58,10.0,West,8.1,-,N/A,,Clear,260,2013-11-22 20:53:00
3:53 PM,28.0,12.9,53,30.57,10.0,SW,13.8,-,N/A,,Clear,230,2013-11-22 21:53:00
4:53 PM,23.0,14.0,68,30.57,10.0,WSW,9.2,-,N/A,,Clear,240,2013-11-22 22:53:00
5:53 PM,23.0,14.0,68,30.57,10.0,WSW,15.0,-,N/A,,Clear,240,2013-11-22 23:53:00
6:53 PM,21.9,14.0,72,30.57,10.0,WSW,13.8,-,N/A,,Clear,250,2013-11-23 00:53:00
7:53 PM,21.0,12.9,71,30.57,10.0,West,16.1,-,N/A,,Clear,270,2013-11-23 01:53:00
8:53 PM,19.9,12.0,71,30.58,10.0,WNW,15.0,-,N/A,,Clear,300,2013-11-23 02:53:00
9:53 PM,19.9,12.9,74,30.59,10.0,NW,13.8,-,N/A,,Clear,320,2013-11-23 03:53:00
10:53 PM,19.9,12.9,74,30.59,10.0,NNW,19.6,-,N/A,,Clear,330,2013-11-23 04:53:00
11:53 PM,18.0,10.0,71,30.62,10.0,NNW,19.6,-,N/A,,Clear,330,2013-11-23 05:53:00